sensor_id;sensor_type;location;lat;lon;timestamp;P1;durP1;ratioP1;P2;durP2;ratioP2
77061;SDS011;65989;51.686;5.138;2023-07-29T00:00:12;10.63;;;5.80;;
77061;SDS011;65989;51.686;5.138;2023-07-29T00:02:37;11.20;;;5.80;;
77061;SDS011;65989;51.686;5.138;2023-07-29T00:05:03;14.03;;;5.90;;
77061;SDS011;65989;51.686;5.138;2023-07-29T00:07:28;13.17;;;5.47;;
77061;SDS011;65989;51.686;5.138;2023-07-29T00:09:53;10.60;;;6.60;;
77061;SDS011;65989;51.686;5.138;2023-07-29T00:12:18;8.87;;;5.40;;
77061;SDS011;65989;51.686;5.138;2023-07-29T00:14:44;10.50;;;5.60;;
77061;SDS011;65989;51.686;5.138;2023-07-29T00:17:09;10.60;;;5.77;;
77061;SDS011;65989;51.686;5.138;2023-07-29T00:19:34;10.10;;;5.73;;
77061;SDS011;65989;51.686;5.138;2023-07-29T00:21:59;8.37;;;5.70;;
77061;SDS011;65989;51.686;5.138;2023-07-29T00:24:25;10.83;;;6.33;;
77061;SDS011;65989;51.686;5.138;2023-07-29T00:26:50;13.33;;;6.30;;
77061;SDS011;65989;51.686;5.138;2023-07-29T00:29:15;9.17;;;5.67;;
77061;SDS011;65989;51.686;5.138;2023-07-29T00:31:40;11.87;;;5.67;;
77061;SDS011;65989;51.686;5.138;2023-07-29T00:34:06;10.70;;;5.57;;
77061;SDS011;65989;51.686;5.138;2023-07-29T00:36:31;10.63;;;5.50;;
77061;SDS011;65989;51.686;5.138;2023-07-29T00:38:56;11.53;;;5.30;;
77061;SDS011;65989;51.686;5.138;2023-07-29T00:41:22;8.85;;;5.63;;
77061;SDS011;65989;51.686;5.138;2023-07-29T00:43:47;10.03;;;5.97;;
77061;SDS011;65989;51.686;5.138;2023-07-29T00:46:12;8.57;;;6.10;;
77061;SDS011;65989;51.686;5.138;2023-07-29T00:48:38;10.80;;;6.73;;
77061;SDS011;65989;51.686;5.138;2023-07-29T00:51:03;13.70;;;6.22;;
77061;SDS011;65989;51.686;5.138;2023-07-29T00:53:29;13.03;;;6.23;;
77061;SDS011;65989;51.686;5.138;2023-07-29T00:55:54;8.90;;;5.90;;
77061;SDS011;65989;51.686;5.138;2023-07-29T00:58:19;10.57;;;6.30;;
77061;SDS011;65989;51.686;5.138;2023-07-29T01:00:44;8.97;;;5.53;;
77061;SDS011;65989;51.686;5.138;2023-07-29T01:03:10;9.10;;;5.53;;
77061;SDS011;65989;51.686;5.138;2023-07-29T01:05:41;10.53;;;5.70;;
77061;SDS011;65989;51.686;5.138;2023-07-29T01:10:40;12.50;;;5.30;;
77061;SDS011;65989;51.686;5.138;2023-07-29T01:13:12;8.73;;;4.68;;
77061;SDS011;65989;51.686;5.138;2023-07-29T01:15:43;9.27;;;4.45;;
77061;SDS011;65989;51.686;5.138;2023-07-29T01:18:17;9.02;;;4.35;;
77061;SDS011;65989;51.686;5.138;2023-07-29T01:20:43;8.98;;;4.55;;
77061;SDS011;65989;51.686;5.138;2023-07-29T01:23:09;8.03;;;4.10;;
77061;SDS011;65989;51.686;5.138;2023-07-29T01:25:34;7.30;;;3.90;;
77061;SDS011;65989;51.686;5.138;2023-07-29T01:27:59;7.50;;;3.50;;
77061;SDS011;65989;51.686;5.138;2023-07-29T01:30:29;7.73;;;3.40;;
77061;SDS011;65989;51.686;5.138;2023-07-29T01:33:04;6.55;;;3.25;;
77061;SDS011;65989;51.686;5.138;2023-07-29T01:35:40;7.28;;;3.30;;
77061;SDS011;65989;51.686;5.138;2023-07-29T01:38:16;11.00;;;3.77;;
77061;SDS011;65989;51.686;5.138;2023-07-29T01:40:43;7.78;;;3.38;;
77061;SDS011;65989;51.686;5.138;2023-07-29T01:43:09;8.05;;;3.50;;
77061;SDS011;65989;51.686;5.138;2023-07-29T01:45:35;8.70;;;3.30;;
77061;SDS011;65989;51.686;5.138;2023-07-29T01:48:04;6.22;;;3.17;;
77061;SDS011;65989;51.686;5.138;2023-07-29T01:50:29;7.50;;;3.28;;
77061;SDS011;65989;51.686;5.138;2023-07-29T01:52:54;10.37;;;3.30;;
77061;SDS011;65989;51.686;5.138;2023-07-29T01:55:19;6.53;;;3.27;;
77061;SDS011;65989;51.686;5.138;2023-07-29T01:57:44;6.50;;;3.30;;
77061;SDS011;65989;51.686;5.138;2023-07-29T02:00:10;6.47;;;3.30;;
77061;SDS011;65989;51.686;5.138;2023-07-29T02:02:35;10.53;;;3.43;;
77061;SDS011;65989;51.686;5.138;2023-07-29T02:05:01;7.43;;;3.70;;
77061;SDS011;65989;51.686;5.138;2023-07-29T02:07:26;6.47;;;3.37;;
77061;SDS011;65989;51.686;5.138;2023-07-29T02:09:51;7.05;;;3.30;;
77061;SDS011;65989;51.686;5.138;2023-07-29T02:12:17;10.33;;;4.00;;
77061;SDS011;65989;51.686;5.138;2023-07-29T02:14:42;6.13;;;3.50;;
77061;SDS011;65989;51.686;5.138;2023-07-29T02:17:07;12.20;;;3.70;;
77061;SDS011;65989;51.686;5.138;2023-07-29T02:19:33;7.32;;;3.20;;
77061;SDS011;65989;51.686;5.138;2023-07-29T02:21:58;8.27;;;3.40;;
77061;SDS011;65989;51.686;5.138;2023-07-29T02:24:24;6.47;;;3.03;;
77061;SDS011;65989;51.686;5.138;2023-07-29T02:26:49;7.22;;;3.25;;
77061;SDS011;65989;51.686;5.138;2023-07-29T02:29:15;5.70;;;3.00;;
77061;SDS011;65989;51.686;5.138;2023-07-29T02:31:40;8.77;;;3.43;;
77061;SDS011;65989;51.686;5.138;2023-07-29T02:34:05;5.67;;;3.10;;
77061;SDS011;65989;51.686;5.138;2023-07-29T02:36:30;11.07;;;3.30;;
77061;SDS011;65989;51.686;5.138;2023-07-29T02:38:56;6.63;;;2.90;;
77061;SDS011;65989;51.686;5.138;2023-07-29T02:41:21;7.83;;;2.80;;
77061;SDS011;65989;51.686;5.138;2023-07-29T02:43:49;6.60;;;3.27;;
77061;SDS011;65989;51.686;5.138;2023-07-29T02:46:15;8.10;;;3.33;;
77061;SDS011;65989;51.686;5.138;2023-07-29T02:48:41;6.63;;;3.00;;
77061;SDS011;65989;51.686;5.138;2023-07-29T02:51:06;7.93;;;3.15;;
77061;SDS011;65989;51.686;5.138;2023-07-29T02:53:32;7.77;;;2.97;;
77061;SDS011;65989;51.686;5.138;2023-07-29T02:55:57;6.63;;;2.63;;
77061;SDS011;65989;51.686;5.138;2023-07-29T02:58:22;6.43;;;2.97;;
77061;SDS011;65989;51.686;5.138;2023-07-29T03:00:47;5.40;;;2.83;;
77061;SDS011;65989;51.686;5.138;2023-07-29T03:03:13;7.05;;;3.40;;
77061;SDS011;65989;51.686;5.138;2023-07-29T03:05:39;5.77;;;2.53;;
77061;SDS011;65989;51.686;5.138;2023-07-29T03:08:04;8.73;;;2.67;;
77061;SDS011;65989;51.686;5.138;2023-07-29T03:10:29;5.90;;;2.80;;
77061;SDS011;65989;51.686;5.138;2023-07-29T03:12:54;4.77;;;2.70;;
77061;SDS011;65989;51.686;5.138;2023-07-29T03:15:23;9.02;;;2.88;;
77061;SDS011;65989;51.686;5.138;2023-07-29T03:17:50;6.47;;;2.67;;
77061;SDS011;65989;51.686;5.138;2023-07-29T03:20:15;5.57;;;2.73;;
77061;SDS011;65989;51.686;5.138;2023-07-29T03:22:42;5.20;;;2.70;;
77061;SDS011;65989;51.686;5.138;2023-07-29T03:25:08;6.83;;;2.60;;
77061;SDS011;65989;51.686;5.138;2023-07-29T03:27:33;5.37;;;2.40;;
77061;SDS011;65989;51.686;5.138;2023-07-29T03:29:58;4.90;;;2.50;;
77061;SDS011;65989;51.686;5.138;2023-07-29T03:32:24;4.75;;;2.67;;
77061;SDS011;65989;51.686;5.138;2023-07-29T03:34:49;5.77;;;2.60;;
77061;SDS011;65989;51.686;5.138;2023-07-29T03:37:14;4.93;;;2.40;;
77061;SDS011;65989;51.686;5.138;2023-07-29T03:39:39;6.13;;;2.60;;
77061;SDS011;65989;51.686;5.138;2023-07-29T03:42:05;7.87;;;2.60;;
77061;SDS011;65989;51.686;5.138;2023-07-29T03:44:30;5.13;;;2.80;;
77061;SDS011;65989;51.686;5.138;2023-07-29T03:46:56;6.35;;;2.30;;
77061;SDS011;65989;51.686;5.138;2023-07-29T03:49:21;6.33;;;2.60;;
77061;SDS011;65989;51.686;5.138;2023-07-29T03:51:46;7.13;;;2.87;;
77061;SDS011;65989;51.686;5.138;2023-07-29T03:54:11;5.90;;;2.90;;
77061;SDS011;65989;51.686;5.138;2023-07-29T03:56:37;6.77;;;3.03;;
77061;SDS011;65989;51.686;5.138;2023-07-29T03:59:03;6.50;;;3.25;;
77061;SDS011;65989;51.686;5.138;2023-07-29T04:01:29;8.57;;;3.30;;
77061;SDS011;65989;51.686;5.138;2023-07-29T04:03:54;6.33;;;3.40;;
77061;SDS011;65989;51.686;5.138;2023-07-29T04:06:20;7.33;;;3.57;;
77061;SDS011;65989;51.686;5.138;2023-07-29T04:08:45;6.50;;;3.03;;
77061;SDS011;65989;51.686;5.138;2023-07-29T04:11:10;7.67;;;3.10;;
77061;SDS011;65989;51.686;5.138;2023-07-29T04:13:36;6.27;;;3.37;;
77061;SDS011;65989;51.686;5.138;2023-07-29T04:16:02;7.47;;;3.45;;
77061;SDS011;65989;51.686;5.138;2023-07-29T04:18:27;8.47;;;4.13;;
77061;SDS011;65989;51.686;5.138;2023-07-29T04:20:53;7.53;;;3.93;;
77061;SDS011;65989;51.686;5.138;2023-07-29T04:23:18;10.53;;;4.00;;
77061;SDS011;65989;51.686;5.138;2023-07-29T04:25:43;12.43;;;4.47;;
77061;SDS011;65989;51.686;5.138;2023-07-29T04:28:08;8.37;;;4.10;;
77061;SDS011;65989;51.686;5.138;2023-07-29T04:30:34;7.95;;;4.05;;
77061;SDS011;65989;51.686;5.138;2023-07-29T04:32:59;9.33;;;4.37;;
77061;SDS011;65989;51.686;5.138;2023-07-29T04:35:24;10.50;;;4.47;;
77061;SDS011;65989;51.686;5.138;2023-07-29T04:37:49;11.10;;;4.83;;
77061;SDS011;65989;51.686;5.138;2023-07-29T04:40:15;9.53;;;4.63;;
77061;SDS011;65989;51.686;5.138;2023-07-29T04:42:40;7.40;;;4.50;;
77061;SDS011;65989;51.686;5.138;2023-07-29T04:45:05;8.23;;;4.40;;
77061;SDS011;65989;51.686;5.138;2023-07-29T04:47:31;10.10;;;4.90;;
77061;SDS011;65989;51.686;5.138;2023-07-29T04:49:56;10.30;;;4.70;;
77061;SDS011;65989;51.686;5.138;2023-07-29T04:52:21;7.47;;;4.17;;
77061;SDS011;65989;51.686;5.138;2023-07-29T04:54:47;11.18;;;4.50;;
77061;SDS011;65989;51.686;5.138;2023-07-29T04:57:12;7.60;;;4.63;;
77061;SDS011;65989;51.686;5.138;2023-07-29T04:59:37;9.23;;;4.70;;
77061;SDS011;65989;51.686;5.138;2023-07-29T05:02:02;8.03;;;4.63;;
77061;SDS011;65989;51.686;5.138;2023-07-29T05:04:27;9.37;;;4.70;;
77061;SDS011;65989;51.686;5.138;2023-07-29T05:06:53;7.93;;;4.50;;
77061;SDS011;65989;51.686;5.138;2023-07-29T05:09:18;8.20;;;4.43;;
77061;SDS011;65989;51.686;5.138;2023-07-29T05:11:45;8.27;;;4.38;;
77061;SDS011;65989;51.686;5.138;2023-07-29T05:14:11;9.75;;;4.75;;
77061;SDS011;65989;51.686;5.138;2023-07-29T05:16:36;11.17;;;4.73;;
77061;SDS011;65989;51.686;5.138;2023-07-29T05:19:02;11.33;;;4.50;;
77061;SDS011;65989;51.686;5.138;2023-07-29T05:21:27;11.48;;;4.47;;
77061;SDS011;65989;51.686;5.138;2023-07-29T05:23:52;9.90;;;4.33;;
77061;SDS011;65989;51.686;5.138;2023-07-29T05:26:18;8.17;;;4.53;;
77061;SDS011;65989;51.686;5.138;2023-07-29T05:28:43;9.57;;;4.37;;
77061;SDS011;65989;51.686;5.138;2023-07-29T05:31:08;8.97;;;4.30;;
77061;SDS011;65989;51.686;5.138;2023-07-29T05:33:33;11.03;;;4.53;;
77061;SDS011;65989;51.686;5.138;2023-07-29T05:35:59;7.40;;;4.20;;
77061;SDS011;65989;51.686;5.138;2023-07-29T05:38:24;9.50;;;4.40;;
77061;SDS011;65989;51.686;5.138;2023-07-29T05:40:49;8.10;;;4.23;;
77061;SDS011;65989;51.686;5.138;2023-07-29T05:43:14;8.07;;;4.23;;
77061;SDS011;65989;51.686;5.138;2023-07-29T05:45:40;7.70;;;4.43;;
77061;SDS011;65989;51.686;5.138;2023-07-29T05:48:05;8.60;;;4.25;;
77061;SDS011;65989;51.686;5.138;2023-07-29T05:50:30;8.77;;;4.53;;
77061;SDS011;65989;51.686;5.138;2023-07-29T05:52:55;8.67;;;4.30;;
77061;SDS011;65989;51.686;5.138;2023-07-29T05:55:21;10.03;;;4.40;;
77061;SDS011;65989;51.686;5.138;2023-07-29T05:57:46;9.10;;;4.10;;
77061;SDS011;65989;51.686;5.138;2023-07-29T06:00:11;11.13;;;4.33;;
77061;SDS011;65989;51.686;5.138;2023-07-29T06:02:37;9.83;;;4.13;;
77061;SDS011;65989;51.686;5.138;2023-07-29T06:05:02;7.30;;;3.80;;
77061;SDS011;65989;51.686;5.138;2023-07-29T06:07:28;8.93;;;4.17;;
77061;SDS011;65989;51.686;5.138;2023-07-29T06:09:55;9.45;;;4.90;;
77061;SDS011;65989;51.686;5.138;2023-07-29T06:12:20;7.17;;;4.17;;
77061;SDS011;65989;51.686;5.138;2023-07-29T06:14:46;8.67;;;4.50;;
77061;SDS011;65989;51.686;5.138;2023-07-29T06:17:11;9.90;;;4.67;;
77061;SDS011;65989;51.686;5.138;2023-07-29T06:19:36;8.73;;;4.30;;
77061;SDS011;65989;51.686;5.138;2023-07-29T06:22:01;8.13;;;4.07;;
77061;SDS011;65989;51.686;5.138;2023-07-29T06:24:27;7.27;;;3.80;;
77061;SDS011;65989;51.686;5.138;2023-07-29T06:26:52;7.30;;;3.83;;
77061;SDS011;65989;51.686;5.138;2023-07-29T06:29:18;7.53;;;3.77;;
77061;SDS011;65989;51.686;5.138;2023-07-29T06:31:43;6.20;;;3.60;;
77061;SDS011;65989;51.686;5.138;2023-07-29T06:34:08;8.47;;;3.53;;
77061;SDS011;65989;51.686;5.138;2023-07-29T06:36:33;6.63;;;3.07;;
77061;SDS011;65989;51.686;5.138;2023-07-29T06:38:58;8.90;;;3.70;;
77061;SDS011;65989;51.686;5.138;2023-07-29T06:41:24;5.73;;;3.30;;
77061;SDS011;65989;51.686;5.138;2023-07-29T06:43:49;8.27;;;3.30;;
77061;SDS011;65989;51.686;5.138;2023-07-29T06:46:14;7.10;;;3.57;;
77061;SDS011;65989;51.686;5.138;2023-07-29T06:48:39;5.97;;;3.20;;
77061;SDS011;65989;51.686;5.138;2023-07-29T06:51:05;5.53;;;2.83;;
77061;SDS011;65989;51.686;5.138;2023-07-29T06:53:30;5.93;;;3.10;;
77061;SDS011;65989;51.686;5.138;2023-07-29T06:55:55;8.23;;;3.27;;
77061;SDS011;65989;51.686;5.138;2023-07-29T06:58:21;8.80;;;3.00;;
77061;SDS011;65989;51.686;5.138;2023-07-29T07:00:46;5.90;;;2.80;;
77061;SDS011;65989;51.686;5.138;2023-07-29T07:03:11;7.82;;;2.90;;
77061;SDS011;65989;51.686;5.138;2023-07-29T07:05:37;5.87;;;2.77;;
77061;SDS011;65989;51.686;5.138;2023-07-29T07:08:02;7.63;;;2.87;;
77061;SDS011;65989;51.686;5.138;2023-07-29T07:10:27;10.07;;;3.17;;
77061;SDS011;65989;51.686;5.138;2023-07-29T07:12:52;6.13;;;2.67;;
77061;SDS011;65989;51.686;5.138;2023-07-29T07:15:18;6.60;;;2.83;;
77061;SDS011;65989;51.686;5.138;2023-07-29T07:17:43;8.20;;;2.97;;
77061;SDS011;65989;51.686;5.138;2023-07-29T07:20:08;5.73;;;3.20;;
77061;SDS011;65989;51.686;5.138;2023-07-29T07:22:34;7.13;;;2.97;;
77061;SDS011;65989;51.686;5.138;2023-07-29T07:24:59;6.50;;;3.10;;
77061;SDS011;65989;51.686;5.138;2023-07-29T07:27:24;5.87;;;2.80;;
77061;SDS011;65989;51.686;5.138;2023-07-29T07:29:49;6.23;;;2.90;;
77061;SDS011;65989;51.686;5.138;2023-07-29T07:32:15;9.13;;;2.90;;
77061;SDS011;65989;51.686;5.138;2023-07-29T07:34:40;5.80;;;2.87;;
77061;SDS011;65989;51.686;5.138;2023-07-29T07:37:05;6.73;;;2.77;;
77061;SDS011;65989;51.686;5.138;2023-07-29T07:39:31;6.57;;;2.67;;
77061;SDS011;65989;51.686;5.138;2023-07-29T07:41:56;6.60;;;2.83;;
77061;SDS011;65989;51.686;5.138;2023-07-29T07:44:22;5.73;;;2.63;;
77061;SDS011;65989;51.686;5.138;2023-07-29T07:46:47;7.57;;;2.80;;
77061;SDS011;65989;51.686;5.138;2023-07-29T07:49:12;5.23;;;2.53;;
77061;SDS011;65989;51.686;5.138;2023-07-29T07:51:38;6.43;;;2.87;;
77061;SDS011;65989;51.686;5.138;2023-07-29T07:54:04;5.97;;;2.70;;
77061;SDS011;65989;51.686;5.138;2023-07-29T07:56:29;5.63;;;2.77;;
77061;SDS011;65989;51.686;5.138;2023-07-29T07:58:54;6.40;;;3.07;;
77061;SDS011;65989;51.686;5.138;2023-07-29T08:01:19;6.90;;;3.30;;
77061;SDS011;65989;51.686;5.138;2023-07-29T08:03:46;5.97;;;2.87;;
77061;SDS011;65989;51.686;5.138;2023-07-29T08:06:11;5.53;;;3.00;;
77061;SDS011;65989;51.686;5.138;2023-07-29T08:08:36;5.40;;;2.70;;
77061;SDS011;65989;51.686;5.138;2023-07-29T08:11:02;6.03;;;2.70;;
77061;SDS011;65989;51.686;5.138;2023-07-29T08:13:27;4.43;;;2.50;;
77061;SDS011;65989;51.686;5.138;2023-07-29T08:15:52;6.10;;;2.23;;
77061;SDS011;65989;51.686;5.138;2023-07-29T08:18:18;5.93;;;2.70;;
77061;SDS011;65989;51.686;5.138;2023-07-29T08:20:53;5.97;;;2.60;;
77061;SDS011;65989;51.686;5.138;2023-07-29T08:23:19;6.07;;;2.45;;
77061;SDS011;65989;51.686;5.138;2023-07-29T08:25:45;9.17;;;2.50;;
77061;SDS011;65989;51.686;5.138;2023-07-29T08:28:10;6.10;;;2.43;;
77061;SDS011;65989;51.686;5.138;2023-07-29T08:30:36;6.45;;;2.20;;
77061;SDS011;65989;51.686;5.138;2023-07-29T08:33:01;5.03;;;2.10;;
77061;SDS011;65989;51.686;5.138;2023-07-29T08:35:26;5.07;;;2.53;;
77061;SDS011;65989;51.686;5.138;2023-07-29T08:37:52;6.77;;;2.30;;
77061;SDS011;65989;51.686;5.138;2023-07-29T08:40:17;6.03;;;2.50;;
77061;SDS011;65989;51.686;5.138;2023-07-29T08:42:42;5.67;;;2.60;;
77061;SDS011;65989;51.686;5.138;2023-07-29T08:45:10;9.10;;;2.50;;
77061;SDS011;65989;51.686;5.138;2023-07-29T08:47:36;6.15;;;2.53;;
77061;SDS011;65989;51.686;5.138;2023-07-29T08:50:02;6.37;;;2.47;;
77061;SDS011;65989;51.686;5.138;2023-07-29T08:52:29;6.18;;;2.50;;
77061;SDS011;65989;51.686;5.138;2023-07-29T08:54:54;4.47;;;2.13;;
77061;SDS011;65989;51.686;5.138;2023-07-29T08:57:20;5.80;;;2.03;;
77061;SDS011;65989;51.686;5.138;2023-07-29T08:59:45;5.13;;;1.80;;
77061;SDS011;65989;51.686;5.138;2023-07-29T09:02:11;4.43;;;2.00;;
77061;SDS011;65989;51.686;5.138;2023-07-29T09:04:36;6.37;;;2.30;;
77061;SDS011;65989;51.686;5.138;2023-07-29T09:07:01;5.60;;;1.93;;
77061;SDS011;65989;51.686;5.138;2023-07-29T09:09:27;4.30;;;2.00;;
77061;SDS011;65989;51.686;5.138;2023-07-29T09:11:53;4.80;;;2.00;;
77061;SDS011;65989;51.686;5.138;2023-07-29T09:14:18;4.93;;;1.90;;
77061;SDS011;65989;51.686;5.138;2023-07-29T09:16:43;4.60;;;1.87;;
77061;SDS011;65989;51.686;5.138;2023-07-29T09:19:09;3.83;;;1.80;;
77061;SDS011;65989;51.686;5.138;2023-07-29T09:21:34;3.60;;;1.70;;
77061;SDS011;65989;51.686;5.138;2023-07-29T09:24:03;4.32;;;2.00;;
77061;SDS011;65989;51.686;5.138;2023-07-29T09:26:29;6.23;;;2.20;;
77061;SDS011;65989;51.686;5.138;2023-07-29T09:28:57;5.57;;;1.98;;
77061;SDS011;65989;51.686;5.138;2023-07-29T09:31:23;4.68;;;1.80;;
77061;SDS011;65989;51.686;5.138;2023-07-29T09:33:48;4.15;;;1.88;;
77061;SDS011;65989;51.686;5.138;2023-07-29T09:36:13;3.87;;;2.00;;
77061;SDS011;65989;51.686;5.138;2023-07-29T09:38:39;6.00;;;2.07;;
77061;SDS011;65989;51.686;5.138;2023-07-29T09:41:04;4.70;;;2.10;;
77061;SDS011;65989;51.686;5.138;2023-07-29T09:43:30;4.67;;;1.97;;
77061;SDS011;65989;51.686;5.138;2023-07-29T09:45:59;5.43;;;2.05;;
77061;SDS011;65989;51.686;5.138;2023-07-29T09:48:24;3.97;;;1.67;;
77061;SDS011;65989;51.686;5.138;2023-07-29T09:50:50;5.57;;;2.17;;
77061;SDS011;65989;51.686;5.138;2023-07-29T09:53:15;4.60;;;2.10;;
77061;SDS011;65989;51.686;5.138;2023-07-29T09:55:45;5.65;;;1.90;;
77061;SDS011;65989;51.686;5.138;2023-07-29T09:58:10;5.80;;;2.07;;
77061;SDS011;65989;51.686;5.138;2023-07-29T10:00:36;4.88;;;1.95;;
77061;SDS011;65989;51.686;5.138;2023-07-29T10:03:03;3.77;;;1.80;;
77061;SDS011;65989;51.686;5.138;2023-07-29T10:05:29;4.68;;;2.15;;
77061;SDS011;65989;51.686;5.138;2023-07-29T10:07:55;5.60;;;1.90;;
77061;SDS011;65989;51.686;5.138;2023-07-29T10:10:20;4.88;;;1.83;;
77061;SDS011;65989;51.686;5.138;2023-07-29T10:12:46;4.17;;;1.80;;
77061;SDS011;65989;51.686;5.138;2023-07-29T10:15:11;3.92;;;2.00;;
77061;SDS011;65989;51.686;5.138;2023-07-29T10:17:37;5.10;;;1.80;;
77061;SDS011;65989;51.686;5.138;2023-07-29T10:20:09;3.77;;;1.60;;
77061;SDS011;65989;51.686;5.138;2023-07-29T10:22:41;4.03;;;1.70;;
77061;SDS011;65989;51.686;5.138;2023-07-29T10:25:08;4.60;;;2.00;;
77061;SDS011;65989;51.686;5.138;2023-07-29T10:27:43;5.47;;;2.00;;
77061;SDS011;65989;51.686;5.138;2023-07-29T10:30:12;6.80;;;2.00;;
77061;SDS011;65989;51.686;5.138;2023-07-29T10:32:38;3.93;;;1.90;;
77061;SDS011;65989;51.686;5.138;2023-07-29T10:35:04;5.75;;;2.05;;
77061;SDS011;65989;51.686;5.138;2023-07-29T10:37:30;5.63;;;2.38;;
77061;SDS011;65989;51.686;5.138;2023-07-29T10:39:55;9.23;;;2.30;;
77061;SDS011;65989;51.686;5.138;2023-07-29T10:42:21;6.60;;;2.30;;
77061;SDS011;65989;51.686;5.138;2023-07-29T10:44:50;10.52;;;2.40;;
77061;SDS011;65989;51.686;5.138;2023-07-29T10:49:46;6.47;;;2.10;;
77061;SDS011;65989;51.686;5.138;2023-07-29T10:52:15;9.18;;;2.40;;
77061;SDS011;65989;51.686;5.138;2023-07-29T10:54:46;4.80;;;2.45;;
77061;SDS011;65989;51.686;5.138;2023-07-29T10:57:12;5.43;;;2.17;;
77061;SDS011;65989;51.686;5.138;2023-07-29T10:59:38;10.25;;;2.20;;
77061;SDS011;65989;51.686;5.138;2023-07-29T11:02:11;5.90;;;1.83;;
77061;SDS011;65989;51.686;5.138;2023-07-29T11:04:45;11.52;;;2.30;;
77061;SDS011;65989;51.686;5.138;2023-07-29T11:14:59;5.45;;;2.50;;
77061;SDS011;65989;51.686;5.138;2023-07-29T11:17:25;5.80;;;2.75;;
77061;SDS011;65989;51.686;5.138;2023-07-29T11:19:51;8.77;;;3.03;;
77061;SDS011;65989;51.686;5.138;2023-07-29T11:22:16;7.27;;;2.50;;
77061;SDS011;65989;51.686;5.138;2023-07-29T11:24:41;6.93;;;3.40;;
77061;SDS011;65989;51.686;5.138;2023-07-29T11:27:11;6.90;;;3.27;;
77061;SDS011;65989;51.686;5.138;2023-07-29T11:29:36;6.95;;;3.03;;
77061;SDS011;65989;51.686;5.138;2023-07-29T11:32:02;7.70;;;3.40;;
77061;SDS011;65989;51.686;5.138;2023-07-29T11:34:31;7.55;;;3.95;;
77061;SDS011;65989;51.686;5.138;2023-07-29T11:36:56;7.13;;;3.90;;
77061;SDS011;65989;51.686;5.138;2023-07-29T11:39:21;11.50;;;4.23;;
77061;SDS011;65989;51.686;5.138;2023-07-29T11:41:47;7.07;;;4.00;;
77061;SDS011;65989;51.686;5.138;2023-07-29T11:44:16;9.93;;;4.07;;
77061;SDS011;65989;51.686;5.138;2023-07-29T11:46:42;7.23;;;4.20;;
77061;SDS011;65989;51.686;5.138;2023-07-29T11:49:07;5.88;;;3.78;;
77061;SDS011;65989;51.686;5.138;2023-07-29T11:51:33;13.70;;;4.60;;
77061;SDS011;65989;51.686;5.138;2023-07-29T11:53:58;12.50;;;4.40;;
77061;SDS011;65989;51.686;5.138;2023-07-29T11:56:23;8.67;;;5.10;;
77061;SDS011;65989;51.686;5.138;2023-07-29T11:58:49;8.40;;;5.00;;
77061;SDS011;65989;51.686;5.138;2023-07-29T12:01:14;10.17;;;5.10;;
77061;SDS011;65989;51.686;5.138;2023-07-29T12:03:39;7.73;;;4.90;;
77061;SDS011;65989;51.686;5.138;2023-07-29T12:06:05;6.77;;;4.47;;
77061;SDS011;65989;51.686;5.138;2023-07-29T12:08:30;8.60;;;4.67;;
77061;SDS011;65989;51.686;5.138;2023-07-29T12:10:55;6.40;;;4.10;;
77061;SDS011;65989;51.686;5.138;2023-07-29T12:13:23;7.47;;;4.40;;
77061;SDS011;65989;51.686;5.138;2023-07-29T12:15:48;6.43;;;3.78;;
77061;SDS011;65989;51.686;5.138;2023-07-29T12:18:14;6.03;;;3.97;;
77061;SDS011;65989;51.686;5.138;2023-07-29T12:20:40;5.97;;;3.50;;
77061;SDS011;65989;51.686;5.138;2023-07-29T12:23:05;5.27;;;3.43;;
77061;SDS011;65989;51.686;5.138;2023-07-29T12:25:32;7.00;;;3.40;;
77061;SDS011;65989;51.686;5.138;2023-07-29T12:28:06;5.27;;;3.30;;
77061;SDS011;65989;51.686;5.138;2023-07-29T12:30:32;7.68;;;3.25;;
77061;SDS011;65989;51.686;5.138;2023-07-29T12:32:57;5.73;;;3.00;;
77061;SDS011;65989;51.686;5.138;2023-07-29T12:35:22;6.38;;;3.45;;
77061;SDS011;65989;51.686;5.138;2023-07-29T12:37:57;7.37;;;3.67;;
77061;SDS011;65989;51.686;5.138;2023-07-29T12:40:26;6.10;;;4.20;;
77061;SDS011;65989;51.686;5.138;2023-07-29T12:42:52;7.57;;;4.43;;
77061;SDS011;65989;51.686;5.138;2023-07-29T12:45:18;8.38;;;4.38;;
77061;SDS011;65989;51.686;5.138;2023-07-29T12:47:44;7.47;;;4.75;;
77061;SDS011;65989;51.686;5.138;2023-07-29T12:50:09;6.83;;;4.63;;
77061;SDS011;65989;51.686;5.138;2023-07-29T12:52:34;7.67;;;4.43;;
77061;SDS011;65989;51.686;5.138;2023-07-29T12:54:59;7.70;;;4.60;;
77061;SDS011;65989;51.686;5.138;2023-07-29T12:57:25;6.43;;;4.00;;
77061;SDS011;65989;51.686;5.138;2023-07-29T12:59:50;8.20;;;4.33;;
77061;SDS011;65989;51.686;5.138;2023-07-29T13:02:15;7.17;;;4.40;;
77061;SDS011;65989;51.686;5.138;2023-07-29T13:04:40;8.20;;;3.70;;
77061;SDS011;65989;51.686;5.138;2023-07-29T13:07:06;6.00;;;3.90;;
77061;SDS011;65989;51.686;5.138;2023-07-29T13:09:31;6.90;;;4.00;;
77061;SDS011;65989;51.686;5.138;2023-07-29T13:11:57;6.37;;;3.50;;
77061;SDS011;65989;51.686;5.138;2023-07-29T13:14:22;4.93;;;2.80;;
77061;SDS011;65989;51.686;5.138;2023-07-29T13:16:47;4.17;;;2.50;;
77061;SDS011;65989;51.686;5.138;2023-07-29T13:19:12;5.63;;;2.77;;
77061;SDS011;65989;51.686;5.138;2023-07-29T13:21:38;5.50;;;2.97;;
77061;SDS011;65989;51.686;5.138;2023-07-29T13:24:03;5.03;;;2.70;;
77061;SDS011;65989;51.686;5.138;2023-07-29T13:26:28;6.07;;;3.10;;
77061;SDS011;65989;51.686;5.138;2023-07-29T13:28:56;5.03;;;2.80;;
77061;SDS011;65989;51.686;5.138;2023-07-29T13:31:21;5.00;;;2.47;;
77061;SDS011;65989;51.686;5.138;2023-07-29T13:33:46;4.47;;;2.30;;
77061;SDS011;65989;51.686;5.138;2023-07-29T13:36:11;5.43;;;2.50;;
77061;SDS011;65989;51.686;5.138;2023-07-29T13:38:37;6.20;;;2.47;;
77061;SDS011;65989;51.686;5.138;2023-07-29T13:41:02;4.73;;;2.33;;
77061;SDS011;65989;51.686;5.138;2023-07-29T13:43:27;5.10;;;2.50;;
77061;SDS011;65989;51.686;5.138;2023-07-29T13:45:53;4.77;;;2.60;;
77061;SDS011;65989;51.686;5.138;2023-07-29T13:48:18;4.32;;;2.50;;
77061;SDS011;65989;51.686;5.138;2023-07-29T13:50:44;4.70;;;2.33;;
77061;SDS011;65989;51.686;5.138;2023-07-29T13:53:10;4.90;;;2.70;;
77061;SDS011;65989;51.686;5.138;2023-07-29T13:55:35;4.27;;;2.30;;
77061;SDS011;65989;51.686;5.138;2023-07-29T13:58:01;8.43;;;2.50;;
77061;SDS011;65989;51.686;5.138;2023-07-29T14:00:26;4.50;;;2.80;;
77061;SDS011;65989;51.686;5.138;2023-07-29T14:02:51;4.83;;;2.50;;
77061;SDS011;65989;51.686;5.138;2023-07-29T14:05:16;5.13;;;2.55;;
77061;SDS011;65989;51.686;5.138;2023-07-29T14:07:42;4.37;;;2.40;;
77061;SDS011;65989;51.686;5.138;2023-07-29T14:10:07;3.90;;;2.30;;
77061;SDS011;65989;51.686;5.138;2023-07-29T14:12:33;4.70;;;2.50;;
77061;SDS011;65989;51.686;5.138;2023-07-29T14:14:58;5.35;;;2.50;;
77061;SDS011;65989;51.686;5.138;2023-07-29T14:17:23;5.43;;;2.67;;
77061;SDS011;65989;51.686;5.138;2023-07-29T14:19:49;6.13;;;2.70;;
77061;SDS011;65989;51.686;5.138;2023-07-29T14:22:14;4.20;;;2.40;;
77061;SDS011;65989;51.686;5.138;2023-07-29T14:24:39;5.30;;;2.77;;
77061;SDS011;65989;51.686;5.138;2023-07-29T14:27:05;5.57;;;2.60;;
77061;SDS011;65989;51.686;5.138;2023-07-29T14:29:30;6.27;;;2.80;;
77061;SDS011;65989;51.686;5.138;2023-07-29T14:31:55;5.80;;;2.80;;
77061;SDS011;65989;51.686;5.138;2023-07-29T14:34:21;5.07;;;2.70;;
77061;SDS011;65989;51.686;5.138;2023-07-29T14:36:46;6.37;;;3.00;;
77061;SDS011;65989;51.686;5.138;2023-07-29T14:39:11;5.60;;;2.90;;
77061;SDS011;65989;51.686;5.138;2023-07-29T14:41:36;5.53;;;2.50;;
77061;SDS011;65989;51.686;5.138;2023-07-29T14:44:02;7.07;;;2.70;;
77061;SDS011;65989;51.686;5.138;2023-07-29T14:46:30;5.70;;;2.70;;
77061;SDS011;65989;51.686;5.138;2023-07-29T14:48:55;4.57;;;2.78;;